Airfield :
LOGIN :

Register | Disclaimer

   EN    FR    IT 

 










Legend :    VFR   Marginal VFR   IFR   Intensive IFR   Very Intensive IFR
Visi :
Ceiling :
>= 8 km
>= 3000ft
5 to 8 km
1000 to 3000 ft
1500m to 5 km
500 to 1000 ft
800 to 1500m
200 to 500 ft
< 800m
< 200 ft
Symbols :   Thunderstorms  Fog  Heavy snow  Heavy precipitations  Wind > 20 kt
SIGMETs :     Misc.  Thunderstorms  Icing  Turbulence  Mountain Waves  Volcanic Ashes






- Airport Elevation : 242 ft
- IATA code : DUB


EIDW - Dublin

CURRENT METAR :
  • 231700Z 18013KT 140V210 9999 FEW014 BKN030 13/09 Q1013 WS RWY28L NOSIG

EXPIRED METARs :
  • 231630Z 17010KT 120V220 9999 FEW014 BKN030 13/09 Q1013 WS RWY28L NOSIG
  • 231600Z 18014G24KT 150V210 9999 FEW014 BKN030 13/09 Q1013 WS RWY28L NOSIG
  • 231530Z 18013KT 9999 FEW014 BKN030 13/09 Q1014 WS RWY28L NOSIG
  • 231500Z 18014G24KT 130V230 9999 FEW014 BKN030 13/09 Q1014 NOSIG
  • 231430Z 19011G27KT 150V250 9999 FEW014 BKN030 13/09 Q1014 NOSIG

TAF TAF EIDW
Valid from the 23 at 12:00 until the 24 at 12:00 UTC


231100Z 2312/2412 20015KT 9999 FEW014 SCT030
TEMPO 2312/2402 20018G28KT
TEMPO 2323/2405 -RA BKN014
PROB40
TEMPO 2323/2405 4000
BECMG 2404/2406 23013KT
TEMPO 2410/2412 23015G26KT



MET'MAP, your aeronautical weather chart ! - Copyright ORBIFLY December 2007 - Disclaimer

ORBIFLY MET'MAP TEAM :

Programming & Development : Alexandra Zaïnal
Concept & original design : Baudouin d'Aumeries
Assistance for programming : Marc-Olivier Méhu
Technical & hardware support : Manuel Goepfert

Contact : metmap@orbifly.com




SOURCES & CREDITS :

   NOAA